Time;durP1;ratioP1;P1;durP2;ratioP2;P2;SDS_P1;SDS_P2;PMS_P1;PMS_P2;Temp;Humidity;BMP_temperature;BMP_pressure;BME280_temperature;BME280_humidity;BME280_pressure;Samples;Min_cycle;Max_cycle;Signal;HPM_P1;HPM_P2
2023/07/09 00:02:13;;;;;;;7.30;2.22;;;;;;;;;;5092457;28;20024;-59
2023/07/09 00:04:40;;;;;;;7.00;3.05;;;;;;;;;;5091667;28;20339;-59
2023/07/09 00:07:09;;;;;;;3.47;2.13;;;;;;;;;;5092063;28;20028;-59
2023/07/09 00:09:37;;;;;;;3.27;2.20;;;;;;;;;;5091738;28;20028;-59
2023/07/09 00:12:04;;;;;;;2.53;1.83;;;;;;;;;;5091002;28;20035;-60
2023/07/09 00:14:30;;;;;;;2.43;1.50;;;;;;;;;;5086761;28;20067;-59
2023/07/09 00:16:57;;;;;;;4.17;2.07;;;;;;;;;;5087525;28;20516;-59
2023/07/09 00:19:24;;;;;;;2.03;1.43;;;;;;;;;;5087510;28;20109;-58
2023/07/09 00:21:53;;;;;;;2.20;1.67;;;;;;;;;;5087457;28;20028;-58
2023/07/09 00:24:20;;;;;;;2.50;1.67;;;;;;;;;;5088641;28;20458;-58
2023/07/09 00:26:48;;;;;;;2.73;1.93;;;;;;;;;;5092036;28;20467;-59
2023/07/09 00:29:14;;;;;;;3.17;1.90;;;;;;;;;;5092125;28;20035;-59
2023/07/09 00:31:41;;;;;;;3.37;2.17;;;;;;;;;;5091954;28;20016;-59
2023/07/09 00:34:12;;;;;;;2.93;2.17;;;;;;;;;;5091867;28;20402;-59
2023/07/09 00:36:39;;;;;;;2.83;1.90;;;;;;;;;;5091233;28;20550;-59
2023/07/09 00:39:07;;;;;;;3.93;2.67;;;;;;;;;;5086963;28;20036;-59
2023/07/09 00:41:38;;;;;;;1.93;1.23;;;;;;;;;;5087235;28;20028;-59
2023/07/09 00:44:24;;;;;;;5.97;2.93;;;;;;;;;;5087146;28;20103;-59
2023/07/09 00:46:51;;;;;;;10.93;2.57;;;;;;;;;;5087261;28;20023;-59
2023/07/09 00:49:47;;;;;;;3.77;2.57;;;;;;;;;;5088834;28;20385;-59
2023/07/09 00:52:22;;;;;;;3.20;2.10;;;;;;;;;;5077664;28;20071;-59
2023/07/09 00:54:49;;;;;;;4.63;2.43;;;;;;;;;;5095968;28;20494;-58
2023/07/09 00:57:17;;;;;;;3.00;2.10;;;;;;;;;;5096055;28;20063;-59
2023/07/09 00:59:46;;;;;;;2.80;1.87;;;;;;;;;;5095913;28;20028;-59
2023/07/09 01:02:13;;;;;;;3.77;2.10;;;;;;;;;;5091447;28;20032;-59
2023/07/09 01:04:41;;;;;;;6.07;2.37;;;;;;;;;;5090468;28;20486;-59
2023/07/09 01:07:08;;;;;;;3.63;2.33;;;;;;;;;;5089949;28;20085;-59
2023/07/09 01:09:40;;;;;;;4.57;2.50;;;;;;;;;;5090296;28;20031;-58
2023/07/09 01:12:08;;;;;;;3.20;2.23;;;;;;;;;;5092660;28;20028;-59
2023/07/09 01:14:36;;;;;;;2.87;1.87;;;;;;;;;;5095380;28;20055;-59
2023/07/09 01:17:04;;;;;;;3.80;2.43;;;;;;;;;;5095321;28;20024;-59
2023/07/09 01:19:43;;;;;;;3.27;2.20;;;;;;;;;;5093873;28;20034;-58
2023/07/09 01:22:11;;;;;;;4.50;2.70;;;;;;;;;;5094736;28;20032;-57
2023/07/09 01:25:01;;;;;;;7.53;2.63;;;;;;;;;;5091287;28;20024;-59
2023/07/09 01:27:33;;;;;;;8.83;3.47;;;;;;;;;;5089335;28;20027;-58
2023/07/09 01:30:00;;;;;;;4.73;3.10;;;;;;;;;;5089686;28;20111;-58
2023/07/09 01:32:28;;;;;;;6.00;4.37;;;;;;;;;;5090037;28;20024;-59
2023/07/09 01:34:57;;;;;;;5.27;3.30;;;;;;;;;;5091913;28;20028;-58
2023/07/09 01:37:26;;;;;;;6.23;4.17;;;;;;;;;;5094754;28;20494;-58
2023/07/09 01:39:54;;;;;;;5.17;2.77;;;;;;;;;;5081199;28;20074;-58
2023/07/09 01:42:22;;;;;;;9.93;5.83;;;;;;;;;;5075271;28;20419;-57
2023/07/09 01:44:50;;;;;;;8.60;5.87;;;;;;;;;;5095175;28;20031;-58
2023/07/09 01:47:17;;;;;;;3.53;2.73;;;;;;;;;;5090428;28;20027;-57
2023/07/09 01:49:46;;;;;;;4.23;2.50;;;;;;;;;;5089211;28;20028;-58
2023/07/09 01:52:16;;;;;;;4.23;2.23;;;;;;;;;;5089442;28;20555;-57
2023/07/09 01:54:46;;;;;;;8.57;2.63;;;;;;;;;;5088557;28;20100;-57
2023/07/09 01:57:25;;;;;;;4.43;2.83;;;;;;;;;;5092442;28;20043;-57
2023/07/09 01:59:54;;;;;;;6.97;2.83;;;;;;;;;;5094087;28;20016;-58
2023/07/09 02:02:21;;;;;;;4.87;2.97;;;;;;;;;;5094232;28;20398;-58
2023/07/09 02:04:57;;;;;;;5.03;2.77;;;;;;;;;;5093438;28;20035;-59
2023/07/09 02:07:24;;;;;;;4.10;2.83;;;;;;;;;;5094288;28;20024;-58
2023/07/09 02:09:51;;;;;;;3.90;2.47;;;;;;;;;;5089016;28;20126;-58
2023/07/09 02:12:19;;;;;;;4.07;2.73;;;;;;;;;;5088963;28;20124;-59
2023/07/09 02:14:46;;;;;;;5.80;3.13;;;;;;;;;;5088537;28;20042;-58
2023/07/09 02:17:14;;;;;;;4.33;2.63;;;;;;;;;;5088908;28;20028;-58
2023/07/09 02:19:40;;;;;;;6.60;3.83;;;;;;;;;;5092725;28;20020;-58
2023/07/09 02:22:08;;;;;;;5.10;3.23;;;;;;;;;;5093781;28;20501;-58
2023/07/09 02:24:35;;;;;;;5.87;3.83;;;;;;;;;;5093409;28;20035;-58
2023/07/09 02:27:03;;;;;;;34.03;4.53;;;;;;;;;;5093911;28;20034;-58
2023/07/09 02:29:30;;;;;;;5.67;3.93;;;;;;;;;;5092785;28;20023;-59
2023/07/09 02:31:59;;;;;;;6.10;4.43;;;;;;;;;;5089378;28;20078;-59
2023/07/09 02:34:26;;;;;;;8.47;4.27;;;;;;;;;;5088565;28;20089;-59
2023/07/09 02:36:57;;;;;;;5.40;3.87;;;;;;;;;;5088256;28;20078;-58
2023/07/09 02:39:25;;;;;;;31.57;4.57;;;;;;;;;;5087974;28;20081;-58
2023/07/09 02:41:51;;;;;;;6.50;3.60;;;;;;;;;;5091577;28;20023;-58
2023/07/09 02:44:19;;;;;;;6.47;3.57;;;;;;;;;;5092935;28;20513;-58
2023/07/09 02:46:46;;;;;;;17.60;5.97;;;;;;;;;;5093515;28;20024;-58
2023/07/09 02:49:13;;;;;;;11.80;4.17;;;;;;;;;;5093456;28;20115;-58
2023/07/09 02:51:40;;;;;;;4.43;3.10;;;;;;;;;;5093757;28;20082;-58
2023/07/09 02:54:07;;;;;;;4.90;2.77;;;;;;;;;;5089564;28;20032;-59
2023/07/09 02:56:34;;;;;;;6.63;4.20;;;;;;;;;;5087936;28;20574;-59
2023/07/09 02:59:01;;;;;;;3.53;2.57;;;;;;;;;;5088107;28;20371;-58
2023/07/09 03:01:28;;;;;;;8.20;3.43;;;;;;;;;;5087808;28;20035;-58
2023/07/09 03:03:56;;;;;;;10.30;3.73;;;;;;;;;;5090592;28;20055;-59
2023/07/09 03:06:24;;;;;;;5.50;3.20;;;;;;;;;;5093265;28;20017;-58
2023/07/09 03:08:51;;;;;;;4.40;2.87;;;;;;;;;;5093053;28;20031;-58
2023/07/09 03:11:19;;;;;;;5.70;3.20;;;;;;;;;;5093217;28;20379;-58
2023/07/09 03:13:50;;;;;;;5.70;3.50;;;;;;;;;;5092673;28;20024;-58
2023/07/09 03:16:19;;;;;;;5.60;2.70;;;;;;;;;;5089237;28;20032;-58
2023/07/09 03:18:46;;;;;;;4.37;2.70;;;;;;;;;;5087189;28;20152;-59
2023/07/09 03:21:13;;;;;;;4.27;3.00;;;;;;;;;;5087656;28;20024;-58
2023/07/09 03:23:40;;;;;;;3.83;2.80;;;;;;;;;;5087668;28;20429;-58
2023/07/09 03:26:06;;;;;;;7.17;3.40;;;;;;;;;;5089936;28;20362;-58
2023/07/09 03:28:33;;;;;;;5.87;3.87;;;;;;;;;;5092946;28;20545;-58
2023/07/09 03:31:00;;;;;;;5.43;3.63;;;;;;;;;;5092477;28;20032;-58
2023/07/09 03:33:27;;;;;;;4.53;2.87;;;;;;;;;;5092928;28;20106;-58
2023/07/09 03:35:54;;;;;;;5.07;3.03;;;;;;;;;;5092809;28;20375;-59
2023/07/09 03:38:21;;;;;;;5.10;3.10;;;;;;;;;;5090340;28;20044;-59
2023/07/09 03:40:51;;;;;;;4.43;3.23;;;;;;;;;;5087167;28;20038;-58
2023/07/09 03:43:18;;;;;;;12.53;4.23;;;;;;;;;;5086911;28;20039;-58
2023/07/09 03:45:46;;;;;;;5.30;3.17;;;;;;;;;;5087161;28;20028;-58
2023/07/09 03:48:13;;;;;;;2.80;2.20;;;;;;;;;;5088615;28;20427;-58
2023/07/09 03:50:40;;;;;;;6.00;3.83;;;;;;;;;;5092775;28;20028;-59
2023/07/09 03:53:07;;;;;;;3.67;2.57;;;;;;;;;;5092450;28;20020;-58
2023/07/09 03:55:33;;;;;;;4.17;2.87;;;;;;;;;;5092475;28;20089;-58
2023/07/09 03:58:02;;;;;;;9.73;3.73;;;;;;;;;;5091739;28;20059;-58
2023/07/09 04:00:29;;;;;;;4.20;3.03;;;;;;;;;;5090161;28;20060;-59
2023/07/09 04:02:56;;;;;;;15.90;3.23;;;;;;;;;;5086585;28;20031;-58
2023/07/09 04:05:23;;;;;;;8.00;3.07;;;;;;;;;;5086507;28;20024;-58
2023/07/09 04:07:50;;;;;;;3.93;3.03;;;;;;;;;;5087107;28;20053;-58
2023/07/09 04:10:17;;;;;;;8.93;3.43;;;;;;;;;;5088002;28;20158;-58
2023/07/09 04:12:44;;;;;;;4.57;3.20;;;;;;;;;;5092326;28;20028;-58
2023/07/09 04:15:14;;;;;;;4.87;3.27;;;;;;;;;;5091434;28;20386;-59
2023/07/09 04:17:42;;;;;;;7.00;3.40;;;;;;;;;;5092048;28;20036;-58
2023/07/09 04:20:09;;;;;;;7.10;3.23;;;;;;;;;;5091661;28;20103;-58
2023/07/09 04:22:36;;;;;;;4.13;2.93;;;;;;;;;;5090787;28;20116;-59
2023/07/09 04:25:04;;;;;;;3.67;2.90;;;;;;;;;;5086588;28;20374;-58
2023/07/09 04:27:31;;;;;;;4.50;3.60;;;;;;;;;;5086356;28;20344;-59
2023/07/09 04:29:58;;;;;;;3.77;2.23;;;;;;;;;;5086632;28;20044;-59
2023/07/09 04:32:25;;;;;;;5.10;2.90;;;;;;;;;;5087075;28;20035;-58
2023/07/09 04:34:51;;;;;;;4.00;2.67;;;;;;;;;;5091506;28;20038;-58
2023/07/09 04:37:19;;;;;;;4.17;3.20;;;;;;;;;;5091759;28;20050;-58
2023/07/09 04:39:47;;;;;;;16.80;3.23;;;;;;;;;;5092064;28;20393;-58
2023/07/09 04:42:15;;;;;;;5.07;2.50;;;;;;;;;;5092308;28;20421;-58
2023/07/09 04:44:43;;;;;;;7.17;3.90;;;;;;;;;;5091377;28;20019;-59
2023/07/09 04:47:11;;;;;;;4.93;2.63;;;;;;;;;;5086870;28;20078;-59
2023/07/09 04:49:38;;;;;;;3.73;2.43;;;;;;;;;;5086306;28;20031;-59
2023/07/09 04:52:05;;;;;;;3.47;2.73;;;;;;;;;;5086432;28;20027;-58
2023/07/09 04:54:32;;;;;;;4.60;2.73;;;;;;;;;;5086556;28;20127;-58
2023/07/09 04:56:59;;;;;;;3.57;2.90;;;;;;;;;;5092031;28;20025;-59
2023/07/09 04:59:26;;;;;;;6.27;3.90;;;;;;;;;;5092075;28;20381;-59
2023/07/09 05:01:54;;;;;;;5.77;3.33;;;;;;;;;;5091721;28;20028;-58
2023/07/09 05:04:20;;;;;;;9.80;3.23;;;;;;;;;;5091937;28;20035;-59
2023/07/09 05:06:47;;;;;;;6.07;4.40;;;;;;;;;;5091807;28;20021;-57
2023/07/09 05:09:14;;;;;;;7.63;3.33;;;;;;;;;;5086261;28;20094;-59
2023/07/09 05:11:41;;;;;;;3.70;2.90;;;;;;;;;;5086230;28;20020;-59
2023/07/09 05:14:07;;;;;;;4.63;3.07;;;;;;;;;;5086349;28;20024;-58
2023/07/09 05:16:34;;;;;;;10.33;4.27;;;;;;;;;;5086624;28;20359;-59
2023/07/09 05:19:01;;;;;;;9.00;3.60;;;;;;;;;;5091150;28;20482;-58
2023/07/09 05:21:28;;;;;;;6.37;3.47;;;;;;;;;;5091752;28;20127;-59
2023/07/09 05:23:54;;;;;;;3.60;2.93;;;;;;;;;;5091763;28;20031;-59
2023/07/09 05:26:21;;;;;;;3.10;2.13;;;;;;;;;;5091116;28;20028;-59
2023/07/09 05:28:48;;;;;;;5.77;3.07;;;;;;;;;;5086248;28;20036;-58
2023/07/09 05:31:15;;;;;;;3.17;2.40;;;;;;;;;;5087053;28;20035;-58
2023/07/09 05:33:42;;;;;;;3.83;2.87;;;;;;;;;;5086413;28;20016;-58
2023/07/09 05:36:15;;;;;;;8.50;3.37;;;;;;;;;;5086681;28;20028;-58
2023/07/09 05:38:48;;;;;;;6.27;3.57;;;;;;;;;;5087762;28;20020;-58
2023/07/09 05:41:16;;;;;;;4.50;2.30;;;;;;;;;;5093829;28;20024;-58
2023/07/09 05:43:46;;;;;;;3.10;2.40;;;;;;;;;;5095003;28;20028;-58
2023/07/09 05:46:14;;;;;;;9.23;2.97;;;;;;;;;;5095150;28;20026;-57
2023/07/09 05:48:41;;;;;;;8.70;3.20;;;;;;;;;;5095026;28;20103;-58
2023/07/09 05:51:08;;;;;;;3.23;2.53;;;;;;;;;;5095155;28;20389;-57
2023/07/09 05:53:34;;;;;;;4.57;2.73;;;;;;;;;;5090349;28;20019;-57
2023/07/09 05:56:02;;;;;;;4.00;2.80;;;;;;;;;;5089378;28;20039;-57
2023/07/09 05:58:28;;;;;;;3.03;2.57;;;;;;;;;;5089662;28;20043;-58
2023/07/09 06:00:57;;;;;;;4.00;2.50;;;;;;;;;;5089220;28;20129;-58
2023/07/09 06:03:25;;;;;;;3.23;2.50;;;;;;;;;;5093453;28;20038;-56
2023/07/09 06:05:52;;;;;;;3.40;2.37;;;;;;;;;;5094641;28;20059;-58
2023/07/09 06:08:20;;;;;;;4.07;3.20;;;;;;;;;;5094808;28;20020;-58
2023/07/09 06:10:54;;;;;;;4.37;3.13;;;;;;;;;;5094653;28;20474;-57
2023/07/09 06:13:21;;;;;;;3.13;2.37;;;;;;;;;;5094358;28;20478;-57
2023/07/09 06:15:52;;;;;;;4.70;3.17;;;;;;;;;;5090150;28;20024;-57
2023/07/09 06:18:19;;;;;;;3.40;2.47;;;;;;;;;;5089249;28;20509;-58
2023/07/09 06:20:50;;;;;;;4.43;3.07;;;;;;;;;;5089015;28;20044;-58
2023/07/09 06:23:17;;;;;;;3.57;2.30;;;;;;;;;;5089199;28;20846;-57
2023/07/09 06:25:47;;;;;;;4.83;2.73;;;;;;;;;;5092851;28;20062;-57
2023/07/09 06:28:16;;;;;;;3.33;2.37;;;;;;;;;;5093884;28;20416;-57
2023/07/09 06:30:43;;;;;;;6.33;3.20;;;;;;;;;;5094225;28;20107;-56
2023/07/09 06:33:10;;;;;;;5.10;3.07;;;;;;;;;;5094138;28;20020;-57
2023/07/09 06:35:37;;;;;;;4.23;2.53;;;;;;;;;;5094240;28;20028;-56
2023/07/09 06:38:04;;;;;;;5.80;3.57;;;;;;;;;;5089489;28;20036;-56
2023/07/09 06:40:31;;;;;;;3.93;3.10;;;;;;;;;;5088501;28;20559;-57
2023/07/09 06:42:57;;;;;;;4.93;3.17;;;;;;;;;;5088538;28;20044;-56
2023/07/09 06:45:25;;;;;;;5.60;3.23;;;;;;;;;;5088272;28;20024;-57
2023/07/09 06:47:51;;;;;;;4.93;3.40;;;;;;;;;;5091959;28;20158;-57
2023/07/09 06:50:18;;;;;;;2.93;2.33;;;;;;;;;;5093763;28;20478;-57
2023/07/09 06:52:45;;;;;;;5.13;3.30;;;;;;;;;;5093955;28;20020;-56
2023/07/09 06:55:12;;;;;;;3.77;2.40;;;;;;;;;;5093686;28;20109;-56
2023/07/09 06:57:38;;;;;;;2.13;1.80;;;;;;;;;;5093341;28;20024;-57
2023/07/09 07:00:06;;;;;;;2.90;2.33;;;;;;;;;;5090228;28;20035;-57
2023/07/09 07:02:33;;;;;;;3.93;2.43;;;;;;;;;;5087794;28;20043;-57
2023/07/09 07:05:00;;;;;;;2.77;1.73;;;;;;;;;;5088419;28;20394;-57
2023/07/09 07:07:27;;;;;;;2.17;1.40;;;;;;;;;;5088102;28;20020;-57
2023/07/09 07:09:54;;;;;;;2.17;1.73;;;;;;;;;;5090878;28;20095;-56
2023/07/09 07:12:28;;;;;;;1.90;1.53;;;;;;;;;;5093504;28;20081;-57
2023/07/09 07:14:55;;;;;;;2.50;1.63;;;;;;;;;;5093041;28;20510;-57
2023/07/09 07:17:21;;;;;;;2.10;1.17;;;;;;;;;;5093075;28;20336;-56
2023/07/09 07:19:48;;;;;;;1.90;1.50;;;;;;;;;;5093390;28;20032;-57
2023/07/09 07:22:15;;;;;;;2.40;1.73;;;;;;;;;;5090491;28;20115;-57
2023/07/09 07:24:42;;;;;;;1.37;1.27;;;;;;;;;;5087704;28;20024;-57
2023/07/09 07:27:09;;;;;;;3.93;2.37;;;;;;;;;;5087830;28;20030;-57
2023/07/09 07:29:36;;;;;;;7.50;1.60;;;;;;;;;;5087774;28;20031;-57
2023/07/09 07:32:03;;;;;;;1.50;1.07;;;;;;;;;;5089739;28;20491;-57
2023/07/09 07:34:30;;;;;;;2.73;1.53;;;;;;;;;;5092754;28;20107;-57
2023/07/09 07:36:56;;;;;;;1.80;1.20;;;;;;;;;;5093177;28;20030;-56
2023/07/09 07:39:24;;;;;;;1.77;1.27;;;;;;;;;;5092895;28;20020;-56
2023/07/09 07:41:51;;;;;;;1.80;1.37;;;;;;;;;;5092641;28;20036;-56
2023/07/09 07:44:18;;;;;;;2.20;1.00;;;;;;;;;;5090524;28;20136;-56
2023/07/09 07:46:45;;;;;;;1.77;1.10;;;;;;;;;;5087575;28;20024;-56
2023/07/09 07:49:11;;;;;;;2.13;1.27;;;;;;;;;;5087108;28;20066;-56
2023/07/09 07:51:38;;;;;;;1.33;1.00;;;;;;;;;;5087044;28;20459;-56
2023/07/09 07:54:06;;;;;;;1.77;1.07;;;;;;;;;;5088899;28;20069;-57
2023/07/09 07:56:33;;;;;;;1.23;0.93;;;;;;;;;;5092698;28;20036;-56
2023/07/09 07:59:00;;;;;;;3.57;1.47;;;;;;;;;;5092656;28;20382;-56
2023/07/09 08:01:26;;;;;;;1.70;1.20;;;;;;;;;;5091999;28;20126;-56
2023/07/09 08:03:53;;;;;;;1.83;1.30;;;;;;;;;;5092971;28;20028;-56
2023/07/09 08:06:20;;;;;;;1.83;1.17;;;;;;;;;;5090476;28;20035;-57
2023/07/09 08:08:47;;;;;;;1.87;0.87;;;;;;;;;;5086944;28;20024;-57
2023/07/09 08:11:16;;;;;;;2.43;0.93;;;;;;;;;;5086982;28;20027;-56
2023/07/09 08:13:43;;;;;;;0.80;0.80;;;;;;;;;;5087163;28;20492;-56
2023/07/09 08:16:11;;;;;;;1.13;1.00;;;;;;;;;;5087613;28;20130;-56
2023/07/09 08:18:38;;;;;;;1.23;0.90;;;;;;;;;;5092241;28;20429;-56
2023/07/09 08:21:05;;;;;;;2.77;1.37;;;;;;;;;;5092332;28;20024;-56
2023/07/09 08:23:32;;;;;;;1.13;0.80;;;;;;;;;;5091521;28;20070;-56
2023/07/09 08:26:01;;;;;;;1.50;1.07;;;;;;;;;;5091907;28;20482;-56
2023/07/09 08:28:28;;;;;;;2.37;1.47;;;;;;;;;;5091156;28;20051;-56
2023/07/09 08:30:56;;;;;;;0.63;0.57;;;;;;;;;;5086597;28;20028;-56
2023/07/09 08:33:23;;;;;;;0.70;0.67;;;;;;;;;;5086776;28;20027;-56
2023/07/09 08:35:51;;;;;;;1.67;1.20;;;;;;;;;;5086618;28;20028;-56
2023/07/09 08:38:18;;;;;;;2.23;1.10;;;;;;;;;;5087265;28;20443;-56
2023/07/09 08:41:11;;;;;;;3.00;1.23;;;;;;;;;;5092072;28;20028;-56
2023/07/09 08:43:50;;;;;;;2.40;1.13;;;;;;;;;;5041489;28;20445;-56
2023/07/09 08:46:33;;;;;;;1.53;1.03;;;;;;;;;;5072155;28;20536;-56
2023/07/09 08:49:00;;;;;;;1.47;1.00;;;;;;;;;;5071908;28;20029;-56
2023/07/09 08:51:32;;;;;;;2.20;1.17;;;;;;;;;;5069223;28;20074;-56
2023/07/09 08:53:59;;;;;;;1.67;1.27;;;;;;;;;;5066487;28;20082;-57
2023/07/09 08:56:27;;;;;;;0.70;0.70;;;;;;;;;;5074143;28;20036;-56
2023/07/09 08:58:55;;;;;;;1.30;1.10;;;;;;;;;;5086523;28;20024;-56
2023/07/09 09:01:30;;;;;;;2.20;1.43;;;;;;;;;;5088232;28;20024;-57
2023/07/09 09:04:04;;;;;;;1.92;1.13;;;;;;;;;;5092063;28;20024;-56
2023/07/09 09:06:31;;;;;;;1.20;0.77;;;;;;;;;;5091814;28;20386;-57
2023/07/09 09:09:24;;;;;;;0.80;0.70;;;;;;;;;;5091851;28;20099;-56
2023/07/09 09:12:00;;;;;;;1.50;1.10;;;;;;;;;;5088351;28;20036;-56
2023/07/09 09:14:30;;;;;;;0.87;0.80;;;;;;;;;;5090494;28;20494;-57
2023/07/09 09:16:57;;;;;;;1.60;1.13;;;;;;;;;;5090278;28;20067;-56
2023/07/09 09:19:30;;;;;;;1.13;0.97;;;;;;;;;;5090355;28;20035;-56
2023/07/09 09:22:03;;;;;;;1.00;0.90;;;;;;;;;;5089880;28;20035;-56
2023/07/09 09:24:36;;;;;;;0.83;0.70;;;;;;;;;;5093883;28;20488;-56
2023/07/09 09:27:02;;;;;;;1.73;1.17;;;;;;;;;;5095783;28;20028;-56
2023/07/09 09:29:29;;;;;;;1.23;0.80;;;;;;;;;;5095577;28;20020;-56
2023/07/09 09:31:57;;;;;;;13.40;1.53;;;;;;;;;;5094723;28;20039;-56
2023/07/09 09:34:28;;;;;;;2.67;0.90;;;;;;;;;;5095033;28;20086;-57
2023/07/09 09:36:56;;;;;;;1.63;1.13;;;;;;;;;;5090850;28;20035;-56
2023/07/09 09:39:24;;;;;;;2.70;1.20;;;;;;;;;;5089906;28;20030;-57
2023/07/09 09:41:54;;;;;;;1.50;1.27;;;;;;;;;;5089791;28;20104;-56
2023/07/09 09:44:25;;;;;;;1.80;1.37;;;;;;;;;;5089594;28;20032;-57
2023/07/09 09:46:52;;;;;;;2.27;1.50;;;;;;;;;;5093043;28;20475;-56
2023/07/09 09:49:19;;;;;;;1.97;1.33;;;;;;;;;;5094676;28;20036;-56
2023/07/09 09:51:47;;;;;;;2.03;1.60;;;;;;;;;;5094873;28;20035;-56
2023/07/09 09:54:18;;;;;;;1.20;0.93;;;;;;;;;;5095148;28;20023;-56
2023/07/09 09:56:45;;;;;;;3.00;1.50;;;;;;;;;;5094882;28;20043;-56
2023/07/09 09:59:32;;;;;;;5.57;1.60;;;;;;;;;;5090598;28;20066;-56
2023/07/09 10:02:00;;;;;;;2.17;1.70;;;;;;;;;;5088881;28;20103;-56
2023/07/09 10:04:28;;;;;;;3.27;1.30;;;;;;;;;;5089380;28;20093;-57
2023/07/09 10:06:57;;;;;;;2.97;1.93;;;;;;;;;;5089515;28;20024;-56
2023/07/09 10:09:39;;;;;;;2.07;1.40;;;;;;;;;;5093534;28;20020;-56
2023/07/09 10:12:18;;;;;;;5.37;1.90;;;;;;;;;;5094429;28;20016;-56
2023/07/09 10:14:58;;;;;;;2.40;1.60;;;;;;;;;;5094432;28;20055;-57
2023/07/09 10:17:34;;;;;;;4.03;1.57;;;;;;;;;;5094403;28;20093;-56
2023/07/09 10:20:04;;;;;;;2.40;1.63;;;;;;;;;;5093751;28;20494;-56
2023/07/09 10:22:43;;;;;;;3.63;1.53;;;;;;;;;;5089174;28;20024;-56
2023/07/09 10:25:37;;;;;;;1.20;1.10;;;;;;;;;;5088702;28;20428;-57
2023/07/09 10:28:22;;;;;;;2.07;1.43;;;;;;;;;;5053218;28;20058;-56
2023/07/09 10:31:05;;;;;;;3.65;1.55;;;;;;;;;;5091110;28;20028;-56
2023/07/09 10:33:34;;;;;;;6.77;2.30;;;;;;;;;;5094184;28;20016;-56
2023/07/09 10:36:07;;;;;;;3.30;1.97;;;;;;;;;;5093812;28;20111;-56
2023/07/09 10:38:37;;;;;;;2.37;1.87;;;;;;;;;;5094315;28;20470;-56
2023/07/09 10:41:08;;;;;;;2.83;2.07;;;;;;;;;;5094048;28;20042;-56
2023/07/09 10:43:38;;;;;;;4.40;2.50;;;;;;;;;;5090137;28;20107;-56
2023/07/09 10:46:12;;;;;;;3.27;2.00;;;;;;;;;;5088670;28;20020;-56
2023/07/09 10:48:42;;;;;;;2.88;2.08;;;;;;;;;;5087998;28;20558;-57
2023/07/09 10:51:16;;;;;;;2.57;2.03;;;;;;;;;;5088537;28;20082;-57
2023/07/09 10:53:49;;;;;;;3.25;2.28;;;;;;;;;;5091643;28;20035;-56
2023/07/09 10:56:22;;;;;;;1.93;1.30;;;;;;;;;;5093879;28;20035;-56
2023/07/09 10:58:55;;;;;;;12.50;2.53;;;;;;;;;;5093882;28;20020;-56
2023/07/09 11:01:32;;;;;;;2.07;1.67;;;;;;;;;;5093767;28;20028;-56
2023/07/09 11:04:11;;;;;;;4.07;2.53;;;;;;;;;;5093633;28;20024;-56
2023/07/09 11:06:39;;;;;;;2.63;2.00;;;;;;;;;;5088198;28;20426;-56
2023/07/09 11:09:12;;;;;;;7.57;3.00;;;;;;;;;;5087953;28;20039;-56
2023/07/09 11:11:41;;;;;;;2.43;2.07;;;;;;;;;;5088266;28;20035;-56
2023/07/09 11:14:31;;;;;;;2.17;1.67;;;;;;;;;;5087982;28;20020;-56
2023/07/09 11:17:00;;;;;;;3.63;2.30;;;;;;;;;;5083022;28;20044;-56
2023/07/09 11:19:27;;;;;;;4.03;2.80;;;;;;;;;;5092998;28;20065;-56
2023/07/09 11:22:29;;;;;;;3.57;2.30;;;;;;;;;;5093213;28;20040;-57
2023/07/09 11:25:05;;;;;;;3.73;2.03;;;;;;;;;;5010564;28;20022;-56
2023/07/09 11:27:32;;;;;;;3.53;2.40;;;;;;;;;;5078934;28;20051;-56
2023/07/09 11:30:05;;;;;;;4.17;2.33;;;;;;;;;;5087549;28;20379;-56
2023/07/09 11:32:31;;;;;;;3.53;2.67;;;;;;;;;;5087692;28;20032;-56
2023/07/09 11:35:09;;;;;;;2.70;2.30;;;;;;;;;;5087589;28;20508;-56
2023/07/09 11:37:45;;;;;;;6.37;2.70;;;;;;;;;;5088823;28;20027;-56
2023/07/09 11:40:13;;;;;;;2.03;1.67;;;;;;;;;;5092896;28;20016;-57
2023/07/09 11:42:53;;;;;;;3.37;2.20;;;;;;;;;;5092482;28;20036;-56
2023/07/09 11:45:32;;;;;;;2.20;1.73;;;;;;;;;;5093061;28;20095;-56
2023/07/09 11:48:04;;;;;;;2.70;2.13;;;;;;;;;;5092530;28;20024;-56
2023/07/09 11:50:33;;;;;;;5.00;2.30;;;;;;;;;;5089412;28;20032;-56
2023/07/09 11:53:05;;;;;;;6.47;2.40;;;;;;;;;;5087329;28;20077;-56
2023/07/09 11:55:40;;;;;;;3.53;2.37;;;;;;;;;;5087308;28;20036;-56
2023/07/09 11:58:07;;;;;;;;;;;;;;;;;;5087201;28;20024;-56
2023/07/09 12:00:48;;;;;;;1.83;1.40;;;;;;;;;;5089885;28;20266;-56
2023/07/09 12:03:35;;;;;;;16.57;2.33;;;;;;;;;;5092499;28;20036;-56
2023/07/09 12:06:04;;;;;;;3.67;2.07;;;;;;;;;;5092385;28;20034;-56
2023/07/09 12:08:35;;;;;;;3.37;1.97;;;;;;;;;;5092115;28;20021;-56
2023/07/09 12:11:02;;;;;;;2.07;1.57;;;;;;;;;;5092471;28;20100;-56
2023/07/09 12:13:29;;;;;;;2.57;1.87;;;;;;;;;;5087471;28;20076;-56
2023/07/09 12:15:55;;;;;;;1.67;1.40;;;;;;;;;;5086544;28;20525;-56
2023/07/09 12:18:22;;;;;;;23.73;1.53;;;;;;;;;;5087274;28;20085;-56
2023/07/09 12:20:51;;;;;;;3.80;1.93;;;;;;;;;;5086730;28;20055;-57
2023/07/09 12:23:27;;;;;;;7.47;2.03;;;;;;;;;;5090746;28;20474;-56
2023/07/09 12:25:55;;;;;;;4.83;2.20;;;;;;;;;;5092822;28;20775;-56
2023/07/09 12:28:22;;;;;;;2.83;1.87;;;;;;;;;;5092339;28;20024;-56
2023/07/09 12:30:50;;;;;;;1.47;1.23;;;;;;;;;;5092356;28;20394;-56
2023/07/09 12:33:18;;;;;;;2.07;1.63;;;;;;;;;;5091937;28;20024;-56
2023/07/09 12:35:45;;;;;;;2.60;1.83;;;;;;;;;;5087568;28;20483;-56
2023/07/09 12:38:20;;;;;;;6.97;2.23;;;;;;;;;;5086453;28;20028;-56
2023/07/09 12:40:47;;;;;;;1.92;1.38;;;;;;;;;;5086558;28;20364;-56
2023/07/09 12:43:14;;;;;;;2.03;1.60;;;;;;;;;;5086811;28;20031;-56
2023/07/09 12:45:41;;;;;;;2.57;2.03;;;;;;;;;;5091079;28;20027;-56
2023/07/09 12:48:09;;;;;;;2.63;1.60;;;;;;;;;;5094158;28;20111;-56
2023/07/09 12:50:36;;;;;;;3.00;2.07;;;;;;;;;;5096031;28;20051;-56
2023/07/09 12:53:12;;;;;;;3.83;1.83;;;;;;;;;;5095646;28;20031;-56
2023/07/09 12:55:40;;;;;;;2.20;1.80;;;;;;;;;;5096126;28;20040;-56
2023/07/09 12:58:11;;;;;;;3.93;2.50;;;;;;;;;;5090941;28;20020;-56
2023/07/09 13:00:37;;;;;;;2.73;1.80;;;;;;;;;;5090602;28;20042;-56
2023/07/09 13:03:12;;;;;;;6.03;2.67;;;;;;;;;;5090593;28;20108;-56
2023/07/09 13:05:39;;;;;;;2.97;2.33;;;;;;;;;;5089681;28;20030;-56
2023/07/09 13:08:06;;;;;;;3.40;1.90;;;;;;;;;;5094849;28;20109;-56
2023/07/09 13:10:39;;;;;;;2.63;2.03;;;;;;;;;;5095774;28;20028;-56
2023/07/09 13:13:06;;;;;;;4.37;3.17;;;;;;;;;;5095883;28;20031;-56
2023/07/09 13:15:36;;;;;;;4.30;2.70;;;;;;;;;;5095427;28;20482;-56
2023/07/09 13:18:04;;;;;;;2.90;2.27;;;;;;;;;;5095763;28;20031;-56
2023/07/09 13:20:31;;;;;;;5.83;2.50;;;;;;;;;;5090368;28;20028;-56
2023/07/09 13:22:58;;;;;;;3.73;2.63;;;;;;;;;;5089828;28;20025;-57
2023/07/09 13:25:26;;;;;;;4.07;2.97;;;;;;;;;;5090153;28;20031;-57
2023/07/09 13:27:53;;;;;;;2.40;1.90;;;;;;;;;;5090187;28;20036;-56
2023/07/09 13:30:20;;;;;;;2.67;2.17;;;;;;;;;;5093895;28;20043;-56
2023/07/09 13:32:49;;;;;;;5.07;2.53;;;;;;;;;;5095578;28;20420;-56
2023/07/09 13:35:18;;;;;;;4.33;1.60;;;;;;;;;;5094837;28;20032;-56
2023/07/09 13:37:45;;;;;;;2.30;1.77;;;;;;;;;;5094965;28;20070;-56
2023/07/09 13:40:14;;;;;;;2.33;1.80;;;;;;;;;;5095143;28;20386;-56
2023/07/09 13:42:41;;;;;;;4.13;2.40;;;;;;;;;;5090631;28;20032;-56
2023/07/09 13:45:26;;;;;;;1.00;0.90;;;;;;;;;;5089835;28;20397;-56
2023/07/09 13:47:54;;;;;;;3.38;1.92;;;;;;;;;;5089597;28;20498;-56
2023/07/09 13:50:23;;;;;;;6.00;2.60;;;;;;;;;;5089671;28;20020;-57
2023/07/09 13:52:50;;;;;;;3.00;1.70;;;;;;;;;;5093954;28;20067;-56
2023/07/09 13:55:18;;;;;;;5.23;2.33;;;;;;;;;;5094666;28;20489;-56
2023/07/09 13:57:45;;;;;;;1.77;1.37;;;;;;;;;;5094883;28;20028;-56
2023/07/09 14:00:12;;;;;;;2.50;1.80;;;;;;;;;;5094065;28;20035;-56
2023/07/09 14:02:39;;;;;;;6.33;1.67;;;;;;;;;;5094685;28;20079;-56
2023/07/09 14:05:07;;;;;;;2.67;1.77;;;;;;;;;;5090011;28;20032;-56
2023/07/09 14:07:35;;;;;;;2.13;1.40;;;;;;;;;;5089423;28;20024;-56
2023/07/09 14:10:03;;;;;;;2.23;1.43;;;;;;;;;;5089054;28;20517;-56
2023/07/09 14:12:30;;;;;;;1.93;1.23;;;;;;;;;;5089246;28;20032;-56
2023/07/09 14:15:00;;;;;;;2.53;1.20;;;;;;;;;;5093072;28;20424;-56
2023/07/09 14:17:27;;;;;;;1.87;1.50;;;;;;;;;;5094559;28;20081;-56
2023/07/09 14:19:56;;;;;;;4.57;1.77;;;;;;;;;;5094215;28;20047;-57
2023/07/09 14:22:27;;;;;;;9.23;2.83;;;;;;;;;;5094429;28;20433;-56
2023/07/09 14:24:53;;;;;;;4.50;1.57;;;;;;;;;;5094057;28;20020;-56
2023/07/09 14:27:20;;;;;;;2.23;1.50;;;;;;;;;;5069618;28;20017;-56
2023/07/09 14:29:47;;;;;;;3.37;2.07;;;;;;;;;;5068813;28;20024;-57
2023/07/09 14:32:37;;;;;;;2.43;1.63;;;;;;;;;;5068869;28;20375;-57
2023/07/09 14:35:05;;;;;;;2.87;1.80;;;;;;;;;;5058232;28;20050;-56
2023/07/09 14:37:32;;;;;;;2.23;1.43;;;;;;;;;;5073237;28;20019;-57
2023/07/09 14:39:58;;;;;;;2.13;1.53;;;;;;;;;;5092850;28;20032;-56
2023/07/09 14:42:25;;;;;;;2.40;1.87;;;;;;;;;;5094000;28;20032;-56
2023/07/09 14:44:52;;;;;;;2.53;1.80;;;;;;;;;;5093884;28;20024;-56
2023/07/09 14:47:20;;;;;;;2.20;1.23;;;;;;;;;;5093913;28;20028;-56
2023/07/09 14:49:47;;;;;;;3.90;2.43;;;;;;;;;;5089125;28;20020;-57
2023/07/09 14:52:17;;;;;;;2.87;1.87;;;;;;;;;;5089020;28;20020;-56
2023/07/09 14:54:44;;;;;;;2.53;1.83;;;;;;;;;;5088606;28;20067;-56
2023/07/09 14:57:20;;;;;;;2.20;1.70;;;;;;;;;;5088148;28;20031;-56